sensor_id;sensor_type;location;lat;lon;timestamp;P1;durP1;ratioP1;P2;durP2;ratioP2
27847;SDS011;15212;48.830;8.730;2023-02-15T00:00:15;26.48;;;10.90;;
27847;SDS011;15212;48.830;8.730;2023-02-15T00:02:44;24.40;;;11.53;;
27847;SDS011;15212;48.830;8.730;2023-02-15T00:05:13;25.27;;;11.45;;
27847;SDS011;15212;48.830;8.730;2023-02-15T00:07:41;21.50;;;10.55;;
27847;SDS011;15212;48.830;8.730;2023-02-15T00:10:09;24.95;;;11.83;;
27847;SDS011;15212;48.830;8.730;2023-02-15T00:12:38;22.45;;;11.60;;
27847;SDS011;15212;48.830;8.730;2023-02-15T00:15:06;28.20;;;11.85;;
27847;SDS011;15212;48.830;8.730;2023-02-15T00:17:35;23.12;;;11.18;;
27847;SDS011;15212;48.830;8.730;2023-02-15T00:20:03;25.15;;;11.30;;
27847;SDS011;15212;48.830;8.730;2023-02-15T00:22:33;24.20;;;11.75;;
27847;SDS011;15212;48.830;8.730;2023-02-15T00:25:01;26.42;;;11.83;;
27847;SDS011;15212;48.830;8.730;2023-02-15T00:27:30;28.07;;;11.73;;
27847;SDS011;15212;48.830;8.730;2023-02-15T00:30:00;30.55;;;11.10;;
27847;SDS011;15212;48.830;8.730;2023-02-15T00:32:28;22.95;;;11.90;;
27847;SDS011;15212;48.830;8.730;2023-02-15T00:34:57;31.27;;;12.13;;
27847;SDS011;15212;48.830;8.730;2023-02-15T00:37:25;23.57;;;12.25;;
27847;SDS011;15212;48.830;8.730;2023-02-15T00:39:53;27.98;;;12.37;;
27847;SDS011;15212;48.830;8.730;2023-02-15T00:42:22;26.23;;;11.60;;
27847;SDS011;15212;48.830;8.730;2023-02-15T00:44:50;23.30;;;10.72;;
27847;SDS011;15212;48.830;8.730;2023-02-15T00:47:19;27.50;;;11.50;;
27847;SDS011;15212;48.830;8.730;2023-02-15T00:49:47;23.85;;;11.50;;
27847;SDS011;15212;48.830;8.730;2023-02-15T00:52:16;28.52;;;12.05;;
27847;SDS011;15212;48.830;8.730;2023-02-15T00:54:44;22.07;;;10.08;;
27847;SDS011;15212;48.830;8.730;2023-02-15T00:57:12;19.87;;;9.65;;
27847;SDS011;15212;48.830;8.730;2023-02-15T00:59:41;20.45;;;8.88;;
27847;SDS011;15212;48.830;8.730;2023-02-15T01:02:09;17.25;;;8.53;;
27847;SDS011;15212;48.830;8.730;2023-02-15T01:04:37;21.02;;;8.98;;
27847;SDS011;15212;48.830;8.730;2023-02-15T01:07:06;20.52;;;8.18;;
27847;SDS011;15212;48.830;8.730;2023-02-15T01:09:34;19.32;;;8.73;;
27847;SDS011;15212;48.830;8.730;2023-02-15T01:12:02;17.82;;;8.25;;
27847;SDS011;15212;48.830;8.730;2023-02-15T01:14:31;16.90;;;8.58;;
27847;SDS011;15212;48.830;8.730;2023-02-15T01:16:59;21.23;;;9.93;;
27847;SDS011;15212;48.830;8.730;2023-02-15T01:19:28;20.10;;;8.68;;
27847;SDS011;15212;48.830;8.730;2023-02-15T01:21:56;21.50;;;9.10;;
27847;SDS011;15212;48.830;8.730;2023-02-15T01:24:25;17.57;;;8.80;;
27847;SDS011;15212;48.830;8.730;2023-02-15T01:26:53;15.13;;;8.55;;
27847;SDS011;15212;48.830;8.730;2023-02-15T01:29:21;17.12;;;8.30;;
27847;SDS011;15212;48.830;8.730;2023-02-15T01:31:50;20.23;;;9.13;;
27847;SDS011;15212;48.830;8.730;2023-02-15T01:34:18;18.27;;;9.13;;
27847;SDS011;15212;48.830;8.730;2023-02-15T01:36:46;19.35;;;8.65;;
27847;SDS011;15212;48.830;8.730;2023-02-15T01:39:15;20.75;;;8.78;;
27847;SDS011;15212;48.830;8.730;2023-02-15T01:41:43;19.00;;;9.03;;
27847;SDS011;15212;48.830;8.730;2023-02-15T01:47:22;20.12;;;9.25;;
27847;SDS011;15212;48.830;8.730;2023-02-15T01:49:58;18.87;;;9.68;;
27847;SDS011;15212;48.830;8.730;2023-02-15T01:52:28;22.52;;;10.08;;
27847;SDS011;15212;48.830;8.730;2023-02-15T01:54:57;21.27;;;10.45;;
27847;SDS011;15212;48.830;8.730;2023-02-15T01:57:28;22.58;;;10.50;;
27847;SDS011;15212;48.830;8.730;2023-02-15T01:59:57;22.65;;;10.23;;
27847;SDS011;15212;48.830;8.730;2023-02-15T02:02:29;14.87;;;7.67;;
27847;SDS011;15212;48.830;8.730;2023-02-15T02:04:59;18.55;;;9.83;;
27847;SDS011;15212;48.830;8.730;2023-02-15T02:07:33;19.50;;;8.93;;
27847;SDS011;15212;48.830;8.730;2023-02-15T02:10:07;21.33;;;9.10;;
27847;SDS011;15212;48.830;8.730;2023-02-15T02:12:39;16.85;;;9.60;;
27847;SDS011;15212;48.830;8.730;2023-02-15T02:15:10;17.48;;;9.00;;
27847;SDS011;15212;48.830;8.730;2023-02-15T02:17:49;19.65;;;8.38;;
27847;SDS011;15212;48.830;8.730;2023-02-15T02:20:50;18.65;;;10.13;;
27847;SDS011;15212;48.830;8.730;2023-02-15T02:23:24;19.67;;;8.40;;
27847;SDS011;15212;48.830;8.730;2023-02-15T02:26:20;26.02;;;8.75;;
27847;SDS011;15212;48.830;8.730;2023-02-15T02:29:13;21.12;;;9.50;;
27847;SDS011;15212;48.830;8.730;2023-02-15T02:32:09;19.87;;;8.90;;
27847;SDS011;15212;48.830;8.730;2023-02-15T02:34:59;20.70;;;10.15;;
27847;SDS011;15212;48.830;8.730;2023-02-15T02:37:55;21.75;;;9.88;;
27847;SDS011;15212;48.830;8.730;2023-02-15T02:43:51;25.80;;;11.93;;
27847;SDS011;15212;48.830;8.730;2023-02-15T02:46:24;25.88;;;10.72;;
27847;SDS011;15212;48.830;8.730;2023-02-15T02:48:57;19.98;;;9.70;;
27847;SDS011;15212;48.830;8.730;2023-02-15T02:51:26;18.65;;;9.23;;
27847;SDS011;15212;48.830;8.730;2023-02-15T02:53:55;23.47;;;10.78;;
27847;SDS011;15212;48.830;8.730;2023-02-15T02:56:32;20.95;;;10.82;;
27847;SDS011;15212;48.830;8.730;2023-02-15T02:59:18;22.50;;;10.72;;
27847;SDS011;15212;48.830;8.730;2023-02-15T03:01:50;21.48;;;9.73;;
27847;SDS011;15212;48.830;8.730;2023-02-15T03:04:31;20.35;;;9.78;;
27847;SDS011;15212;48.830;8.730;2023-02-15T03:07:07;22.27;;;10.00;;
27847;SDS011;15212;48.830;8.730;2023-02-15T03:09:53;24.80;;;10.05;;
27847;SDS011;15212;48.830;8.730;2023-02-15T03:12:24;21.93;;;10.15;;
27847;SDS011;15212;48.830;8.730;2023-02-15T03:15:06;25.20;;;10.30;;
27847;SDS011;15212;48.830;8.730;2023-02-15T03:17:43;21.20;;;9.68;;
27847;SDS011;15212;48.830;8.730;2023-02-15T03:20:18;20.52;;;8.65;;
27847;SDS011;15212;48.830;8.730;2023-02-15T03:22:55;18.77;;;9.23;;
27847;SDS011;15212;48.830;8.730;2023-02-15T03:25:37;18.05;;;9.00;;
27847;SDS011;15212;48.830;8.730;2023-02-15T03:28:09;17.90;;;8.45;;
27847;SDS011;15212;48.830;8.730;2023-02-15T03:30:45;17.50;;;8.65;;
27847;SDS011;15212;48.830;8.730;2023-02-15T03:33:18;16.62;;;8.15;;
27847;SDS011;15212;48.830;8.730;2023-02-15T03:35:57;17.48;;;8.60;;
27847;SDS011;15212;48.830;8.730;2023-02-15T03:38:39;14.43;;;6.50;;
27847;SDS011;15212;48.830;8.730;2023-02-15T03:41:12;18.02;;;8.15;;
27847;SDS011;15212;48.830;8.730;2023-02-15T03:47:27;15.50;;;7.65;;
27847;SDS011;15212;48.830;8.730;2023-02-15T03:49:26;14.47;;;7.90;;
27847;SDS011;15212;48.830;8.730;2023-02-15T03:52:00;21.50;;;8.05;;
27847;SDS011;15212;48.830;8.730;2023-02-15T03:54:31;18.62;;;8.38;;
27847;SDS011;15212;48.830;8.730;2023-02-15T04:00:17;13.60;;;6.45;;
27847;SDS011;15212;48.830;8.730;2023-02-15T04:06:00;12.10;;;5.78;;
27847;SDS011;15212;48.830;8.730;2023-02-15T04:08:30;14.55;;;6.35;;
27847;SDS011;15212;48.830;8.730;2023-02-15T04:11:16;12.43;;;6.45;;
27847;SDS011;15212;48.830;8.730;2023-02-15T04:13:45;12.95;;;5.75;;
27847;SDS011;15212;48.830;8.730;2023-02-15T04:16:13;13.88;;;5.78;;
27847;SDS011;15212;48.830;8.730;2023-02-15T04:18:42;11.53;;;5.20;;
27847;SDS011;15212;48.830;8.730;2023-02-15T04:21:29;7.85;;;4.62;;
27847;SDS011;15212;48.830;8.730;2023-02-15T04:24:15;8.70;;;4.15;;
27847;SDS011;15212;48.830;8.730;2023-02-15T04:27:02;9.68;;;4.87;;
27847;SDS011;15212;48.830;8.730;2023-02-15T04:29:31;12.43;;;5.05;;
27847;SDS011;15212;48.830;8.730;2023-02-15T04:32:00;9.60;;;4.62;;
27847;SDS011;15212;48.830;8.730;2023-02-15T04:34:29;8.53;;;4.65;;
27847;SDS011;15212;48.830;8.730;2023-02-15T04:36:57;9.33;;;4.30;;
27847;SDS011;15212;48.830;8.730;2023-02-15T04:39:26;8.48;;;4.20;;
27847;SDS011;15212;48.830;8.730;2023-02-15T04:41:54;6.60;;;3.58;;
27847;SDS011;15212;48.830;8.730;2023-02-15T04:44:22;7.83;;;3.85;;
27847;SDS011;15212;48.830;8.730;2023-02-15T04:46:51;7.22;;;3.83;;
27847;SDS011;15212;48.830;8.730;2023-02-15T04:49:20;7.85;;;3.72;;
27847;SDS011;15212;48.830;8.730;2023-02-15T04:51:48;8.73;;;3.62;;
27847;SDS011;15212;48.830;8.730;2023-02-15T04:54:17;6.15;;;3.22;;
27847;SDS011;15212;48.830;8.730;2023-02-15T04:56:45;7.20;;;3.45;;
27847;SDS011;15212;48.830;8.730;2023-02-15T04:59:13;6.30;;;3.20;;
27847;SDS011;15212;48.830;8.730;2023-02-15T05:01:42;6.70;;;3.35;;
27847;SDS011;15212;48.830;8.730;2023-02-15T05:04:11;6.12;;;3.15;;
27847;SDS011;15212;48.830;8.730;2023-02-15T05:06:39;5.92;;;3.47;;
27847;SDS011;15212;48.830;8.730;2023-02-15T05:09:07;7.05;;;3.72;;
27847;SDS011;15212;48.830;8.730;2023-02-15T05:11:37;5.45;;;3.30;;
27847;SDS011;15212;48.830;8.730;2023-02-15T05:14:06;5.78;;;2.92;;
27847;SDS011;15212;48.830;8.730;2023-02-15T05:16:34;5.33;;;3.10;;
27847;SDS011;15212;48.830;8.730;2023-02-15T05:19:03;4.42;;;2.55;;
27847;SDS011;15212;48.830;8.730;2023-02-15T05:21:31;5.62;;;3.22;;
27847;SDS011;15212;48.830;8.730;2023-02-15T05:24:00;9.23;;;3.00;;
27847;SDS011;15212;48.830;8.730;2023-02-15T05:26:30;7.05;;;3.17;;
27847;SDS011;15212;48.830;8.730;2023-02-15T05:29:17;4.08;;;2.60;;
27847;SDS011;15212;48.830;8.730;2023-02-15T05:31:45;5.80;;;2.60;;
27847;SDS011;15212;48.830;8.730;2023-02-15T05:34:13;5.53;;;3.15;;
27847;SDS011;15212;48.830;8.730;2023-02-15T05:36:42;6.15;;;3.05;;
27847;SDS011;15212;48.830;8.730;2023-02-15T05:39:10;5.03;;;3.65;;
27847;SDS011;15212;48.830;8.730;2023-02-15T05:41:38;6.70;;;3.20;;
27847;SDS011;15212;48.830;8.730;2023-02-15T05:44:07;5.03;;;2.77;;
27847;SDS011;15212;48.830;8.730;2023-02-15T05:46:35;6.10;;;3.02;;
27847;SDS011;15212;48.830;8.730;2023-02-15T05:49:03;6.22;;;3.55;;
27847;SDS011;15212;48.830;8.730;2023-02-15T05:51:32;6.40;;;3.15;;
27847;SDS011;15212;48.830;8.730;2023-02-15T05:54:00;5.12;;;2.90;;
27847;SDS011;15212;48.830;8.730;2023-02-15T05:56:29;5.62;;;2.70;;
27847;SDS011;15212;48.830;8.730;2023-02-15T05:58:57;5.92;;;3.10;;
27847;SDS011;15212;48.830;8.730;2023-02-15T06:01:25;4.17;;;2.50;;
27847;SDS011;15212;48.830;8.730;2023-02-15T06:03:54;5.10;;;2.95;;
27847;SDS011;15212;48.830;8.730;2023-02-15T06:06:22;5.23;;;2.37;;
27847;SDS011;15212;48.830;8.730;2023-02-15T06:08:50;5.30;;;2.52;;
27847;SDS011;15212;48.830;8.730;2023-02-15T06:11:19;5.37;;;2.62;;
27847;SDS011;15212;48.830;8.730;2023-02-15T06:13:47;6.40;;;2.98;;
27847;SDS011;15212;48.830;8.730;2023-02-15T06:16:15;13.13;;;4.97;;
27847;SDS011;15212;48.830;8.730;2023-02-15T06:18:44;17.32;;;6.72;;
27847;SDS011;15212;48.830;8.730;2023-02-15T06:21:12;5.47;;;2.77;;
27847;SDS011;15212;48.830;8.730;2023-02-15T06:23:41;3.40;;;2.17;;
27847;SDS011;15212;48.830;8.730;2023-02-15T06:26:09;6.87;;;2.87;;
27847;SDS011;15212;48.830;8.730;2023-02-15T06:28:38;4.62;;;2.52;;
27847;SDS011;15212;48.830;8.730;2023-02-15T06:31:06;2.85;;;1.85;;
27847;SDS011;15212;48.830;8.730;2023-02-15T06:33:35;2.98;;;2.20;;
27847;SDS011;15212;48.830;8.730;2023-02-15T06:36:04;3.22;;;2.17;;
27847;SDS011;15212;48.830;8.730;2023-02-15T06:38:33;3.52;;;2.10;;
27847;SDS011;15212;48.830;8.730;2023-02-15T06:41:01;5.15;;;2.15;;
27847;SDS011;15212;48.830;8.730;2023-02-15T06:43:29;4.17;;;2.45;;
27847;SDS011;15212;48.830;8.730;2023-02-15T06:45:59;3.95;;;2.70;;
27847;SDS011;15212;48.830;8.730;2023-02-15T06:48:28;3.60;;;2.12;;
27847;SDS011;15212;48.830;8.730;2023-02-15T06:50:56;3.00;;;2.02;;
27847;SDS011;15212;48.830;8.730;2023-02-15T06:53:24;4.40;;;2.10;;
27847;SDS011;15212;48.830;8.730;2023-02-15T06:55:59;3.47;;;2.05;;
27847;SDS011;15212;48.830;8.730;2023-02-15T06:58:32;4.60;;;2.60;;
27847;SDS011;15212;48.830;8.730;2023-02-15T07:01:02;5.22;;;2.92;;
27847;SDS011;15212;48.830;8.730;2023-02-15T07:03:32;5.20;;;3.40;;
27847;SDS011;15212;48.830;8.730;2023-02-15T07:06:02;5.47;;;2.80;;
27847;SDS011;15212;48.830;8.730;2023-02-15T07:08:33;4.80;;;2.80;;
27847;SDS011;15212;48.830;8.730;2023-02-15T07:11:03;5.67;;;3.25;;
27847;SDS011;15212;48.830;8.730;2023-02-15T07:13:50;5.25;;;3.00;;
27847;SDS011;15212;48.830;8.730;2023-02-15T07:16:19;5.12;;;2.95;;
27847;SDS011;15212;48.830;8.730;2023-02-15T07:18:47;5.05;;;2.90;;
27847;SDS011;15212;48.830;8.730;2023-02-15T07:21:16;7.33;;;3.05;;
27847;SDS011;15212;48.830;8.730;2023-02-15T07:23:44;7.15;;;3.02;;
27847;SDS011;15212;48.830;8.730;2023-02-15T07:26:12;6.37;;;2.98;;
27847;SDS011;15212;48.830;8.730;2023-02-15T07:28:41;5.50;;;3.40;;
27847;SDS011;15212;48.830;8.730;2023-02-15T07:31:10;8.08;;;3.40;;
27847;SDS011;15212;48.830;8.730;2023-02-15T07:33:38;8.78;;;3.33;;
27847;SDS011;15212;48.830;8.730;2023-02-15T07:36:07;6.58;;;3.15;;
27847;SDS011;15212;48.830;8.730;2023-02-15T07:38:38;7.35;;;3.15;;
27847;SDS011;15212;48.830;8.730;2023-02-15T07:41:09;8.10;;;3.67;;
27847;SDS011;15212;48.830;8.730;2023-02-15T07:43:40;6.60;;;3.62;;
27847;SDS011;15212;48.830;8.730;2023-02-15T07:46:11;8.53;;;3.90;;
27847;SDS011;15212;48.830;8.730;2023-02-15T07:48:42;6.85;;;3.75;;
27847;SDS011;15212;48.830;8.730;2023-02-15T07:51:11;6.30;;;3.52;;
27847;SDS011;15212;48.830;8.730;2023-02-15T07:53:41;9.23;;;4.10;;
27847;SDS011;15212;48.830;8.730;2023-02-15T07:56:10;11.22;;;5.53;;
27847;SDS011;15212;48.830;8.730;2023-02-15T07:58:40;12.47;;;5.83;;
27847;SDS011;15212;48.830;8.730;2023-02-15T08:01:19;11.78;;;5.50;;
27847;SDS011;15212;48.830;8.730;2023-02-15T08:03:54;15.30;;;5.90;;
27847;SDS011;15212;48.830;8.730;2023-02-15T08:06:23;11.90;;;5.80;;
27847;SDS011;15212;48.830;8.730;2023-02-15T08:08:54;15.28;;;5.37;;
27847;SDS011;15212;48.830;8.730;2023-02-15T08:11:23;10.80;;;6.03;;
27847;SDS011;15212;48.830;8.730;2023-02-15T08:16:43;10.88;;;6.08;;
27847;SDS011;15212;48.830;8.730;2023-02-15T08:19:23;17.92;;;8.13;;
27847;SDS011;15212;48.830;8.730;2023-02-15T08:21:58;17.50;;;8.65;;
27847;SDS011;15212;48.830;8.730;2023-02-15T08:24:34;14.43;;;6.80;;
27847;SDS011;15212;48.830;8.730;2023-02-15T08:27:04;15.15;;;7.55;;
27847;SDS011;15212;48.830;8.730;2023-02-15T08:29:35;25.45;;;9.90;;
27847;SDS011;15212;48.830;8.730;2023-02-15T08:32:05;19.82;;;8.80;;
27847;SDS011;15212;48.830;8.730;2023-02-15T08:34:37;15.60;;;7.15;;
27847;SDS011;15212;48.830;8.730;2023-02-15T08:37:07;16.57;;;7.35;;
27847;SDS011;15212;48.830;8.730;2023-02-15T08:39:36;9.48;;;6.28;;
27847;SDS011;15212;48.830;8.730;2023-02-15T08:42:04;9.45;;;6.05;;
27847;SDS011;15212;48.830;8.730;2023-02-15T08:44:33;11.48;;;5.97;;
27847;SDS011;15212;48.830;8.730;2023-02-15T08:47:01;13.03;;;6.53;;
27847;SDS011;15212;48.830;8.730;2023-02-15T08:49:29;11.68;;;5.83;;
27847;SDS011;15212;48.830;8.730;2023-02-15T08:51:58;11.53;;;6.58;;
27847;SDS011;15212;48.830;8.730;2023-02-15T08:54:26;13.00;;;6.92;;
27847;SDS011;15212;48.830;8.730;2023-02-15T08:56:55;19.65;;;8.98;;
27847;SDS011;15212;48.830;8.730;2023-02-15T08:59:24;41.68;;;19.92;;
27847;SDS011;15212;48.830;8.730;2023-02-15T09:01:53;47.78;;;22.05;;
27847;SDS011;15212;48.830;8.730;2023-02-15T09:04:22;46.58;;;18.80;;
27847;SDS011;15212;48.830;8.730;2023-02-15T09:06:50;37.65;;;17.37;;
27847;SDS011;15212;48.830;8.730;2023-02-15T09:09:19;27.77;;;13.80;;
27847;SDS011;15212;48.830;8.730;2023-02-15T09:11:48;33.08;;;16.35;;
27847;SDS011;15212;48.830;8.730;2023-02-15T09:14:19;47.65;;;21.15;;
27847;SDS011;15212;48.830;8.730;2023-02-15T09:16:51;40.20;;;19.37;;
27847;SDS011;15212;48.830;8.730;2023-02-15T09:19:21;36.80;;;17.80;;
27847;SDS011;15212;48.830;8.730;2023-02-15T09:21:50;30.68;;;15.98;;
27847;SDS011;15212;48.830;8.730;2023-02-15T09:24:19;26.60;;;14.35;;
27847;SDS011;15212;48.830;8.730;2023-02-15T09:26:48;21.85;;;11.35;;
27847;SDS011;15212;48.830;8.730;2023-02-15T09:29:17;19.10;;;11.03;;
27847;SDS011;15212;48.830;8.730;2023-02-15T09:31:47;19.92;;;9.95;;
27847;SDS011;15212;48.830;8.730;2023-02-15T09:34:19;18.77;;;8.90;;
27847;SDS011;15212;48.830;8.730;2023-02-15T09:36:49;19.20;;;10.15;;
27847;SDS011;15212;48.830;8.730;2023-02-15T09:39:24;17.40;;;8.95;;
27847;SDS011;15212;48.830;8.730;2023-02-15T09:44:59;18.52;;;9.03;;
27847;SDS011;15212;48.830;8.730;2023-02-15T09:56:09;13.98;;;7.92;;
27847;SDS011;15212;48.830;8.730;2023-02-15T10:10:57;17.05;;;10.08;;
27847;SDS011;15212;48.830;8.730;2023-02-15T10:14:13;16.95;;;9.85;;
27847;SDS011;15212;48.830;8.730;2023-02-15T10:25:59;15.50;;;7.90;;
27847;SDS011;15212;48.830;8.730;2023-02-15T10:31:38;14.70;;;6.80;;
27847;SDS011;15212;48.830;8.730;2023-02-15T10:42:55;13.00;;;6.62;;
27847;SDS011;15212;48.830;8.730;2023-02-15T10:45:51;14.40;;;8.40;;
27847;SDS011;15212;48.830;8.730;2023-02-15T10:48:38;11.63;;;6.58;;
27847;SDS011;15212;48.830;8.730;2023-02-15T10:51:53;9.95;;;5.47;;
27847;SDS011;15212;48.830;8.730;2023-02-15T10:57:21;10.58;;;5.80;;
27847;SDS011;15212;48.830;8.730;2023-02-15T11:03:00;11.88;;;6.50;;
27847;SDS011;15212;48.830;8.730;2023-02-15T11:05:40;8.85;;;4.95;;
27847;SDS011;15212;48.830;8.730;2023-02-15T11:08:31;11.63;;;4.90;;
27847;SDS011;15212;48.830;8.730;2023-02-15T11:11:06;10.08;;;4.65;;
27847;SDS011;15212;48.830;8.730;2023-02-15T11:16:16;9.45;;;4.97;;
27847;SDS011;15212;48.830;8.730;2023-02-15T11:18:52;10.53;;;4.80;;
27847;SDS011;15212;48.830;8.730;2023-02-15T11:21:34;8.73;;;4.67;;
27847;SDS011;15212;48.830;8.730;2023-02-15T11:24:14;18.32;;;10.03;;
27847;SDS011;15212;48.830;8.730;2023-02-15T11:26:42;17.80;;;9.35;;
27847;SDS011;15212;48.830;8.730;2023-02-15T11:29:25;20.40;;;11.18;;
27847;SDS011;15212;48.830;8.730;2023-02-15T11:32:18;25.37;;;12.70;;
27847;SDS011;15212;48.830;8.730;2023-02-15T11:34:55;23.52;;;12.55;;
27847;SDS011;15212;48.830;8.730;2023-02-15T11:40:19;28.65;;;13.22;;
27847;SDS011;15212;48.830;8.730;2023-02-15T11:43:04;22.82;;;11.15;;
27847;SDS011;15212;48.830;8.730;2023-02-15T11:45:36;25.30;;;11.80;;
27847;SDS011;15212;48.830;8.730;2023-02-15T11:48:10;24.18;;;11.75;;
27847;SDS011;15212;48.830;8.730;2023-02-15T11:50:40;27.05;;;13.38;;
27847;SDS011;15212;48.830;8.730;2023-02-15T11:53:14;26.48;;;13.50;;
27847;SDS011;15212;48.830;8.730;2023-02-15T11:55:47;26.60;;;12.80;;
27847;SDS011;15212;48.830;8.730;2023-02-15T11:58:23;29.42;;;13.85;;
27847;SDS011;15212;48.830;8.730;2023-02-15T12:01:16;29.27;;;12.98;;
27847;SDS011;15212;48.830;8.730;2023-02-15T12:04:16;30.27;;;14.43;;
27847;SDS011;15212;48.830;8.730;2023-02-15T12:06:58;29.02;;;14.43;;
27847;SDS011;15212;48.830;8.730;2023-02-15T12:09:50;31.35;;;15.00;;
27847;SDS011;15212;48.830;8.730;2023-02-15T12:12:47;19.32;;;10.32;;
27847;SDS011;15212;48.830;8.730;2023-02-15T12:15:16;18.37;;;9.23;;
27847;SDS011;15212;48.830;8.730;2023-02-15T12:17:52;15.32;;;7.85;;
27847;SDS011;15212;48.830;8.730;2023-02-15T12:20:25;11.65;;;5.72;;
27847;SDS011;15212;48.830;8.730;2023-02-15T12:23:02;10.10;;;5.53;;
27847;SDS011;15212;48.830;8.730;2023-02-15T12:25:35;10.85;;;5.55;;
27847;SDS011;15212;48.830;8.730;2023-02-15T12:28:24;15.08;;;6.15;;
27847;SDS011;15212;48.830;8.730;2023-02-15T12:31:01;9.33;;;5.20;;
27847;SDS011;15212;48.830;8.730;2023-02-15T12:33:41;10.58;;;5.35;;
27847;SDS011;15212;48.830;8.730;2023-02-15T12:36:12;9.85;;;5.37;;
27847;SDS011;15212;48.830;8.730;2023-02-15T12:39:01;11.43;;;5.72;;
27847;SDS011;15212;48.830;8.730;2023-02-15T12:41:34;12.23;;;6.53;;
27847;SDS011;15212;48.830;8.730;2023-02-15T12:50:03;13.93;;;7.55;;
27847;SDS011;15212;48.830;8.730;2023-02-15T12:52:46;14.15;;;6.65;;
27847;SDS011;15212;48.830;8.730;2023-02-15T12:55:24;15.30;;;7.17;;
27847;SDS011;15212;48.830;8.730;2023-02-15T13:00:47;17.90;;;6.33;;
27847;SDS011;15212;48.830;8.730;2023-02-15T13:03:38;14.87;;;7.12;;
27847;SDS011;15212;48.830;8.730;2023-02-15T13:06:17;16.90;;;7.25;;
27847;SDS011;15212;48.830;8.730;2023-02-15T13:08:47;16.65;;;6.97;;
27847;SDS011;15212;48.830;8.730;2023-02-15T13:11:25;17.00;;;7.55;;
27847;SDS011;15212;48.830;8.730;2023-02-15T13:13:59;16.93;;;6.83;;
27847;SDS011;15212;48.830;8.730;2023-02-15T13:16:34;12.28;;;6.40;;
27847;SDS011;15212;48.830;8.730;2023-02-15T13:19:18;18.57;;;7.87;;
27847;SDS011;15212;48.830;8.730;2023-02-15T13:21:55;14.93;;;7.25;;
27847;SDS011;15212;48.830;8.730;2023-02-15T13:24:41;15.93;;;7.20;;
27847;SDS011;15212;48.830;8.730;2023-02-15T13:27:24;20.45;;;8.10;;
27847;SDS011;15212;48.830;8.730;2023-02-15T13:30:10;14.23;;;6.97;;
27847;SDS011;15212;48.830;8.730;2023-02-15T13:32:46;18.65;;;7.58;;
27847;SDS011;15212;48.830;8.730;2023-02-15T13:35:18;21.23;;;8.85;;
27847;SDS011;15212;48.830;8.730;2023-02-15T13:40:52;15.28;;;6.87;;
27847;SDS011;15212;48.830;8.730;2023-02-15T13:43:38;18.05;;;7.25;;
27847;SDS011;15212;48.830;8.730;2023-02-15T13:46:39;17.82;;;7.62;;
27847;SDS011;15212;48.830;8.730;2023-02-15T13:52:03;17.85;;;7.05;;
27847;SDS011;15212;48.830;8.730;2023-02-15T13:55:13;15.58;;;7.05;;
27847;SDS011;15212;48.830;8.730;2023-02-15T14:00:44;20.32;;;9.75;;
27847;SDS011;15212;48.830;8.730;2023-02-15T14:09:16;22.75;;;10.80;;
27847;SDS011;15212;48.830;8.730;2023-02-15T14:15:13;19.07;;;9.63;;
27847;SDS011;15212;48.830;8.730;2023-02-15T14:20:47;20.10;;;9.33;;
27847;SDS011;15212;48.830;8.730;2023-02-15T14:23:43;22.35;;;10.43;;
27847;SDS011;15212;48.830;8.730;2023-02-15T14:26:47;27.30;;;13.25;;
27847;SDS011;15212;48.830;8.730;2023-02-15T14:30:13;22.70;;;10.85;;
27847;SDS011;15212;48.830;8.730;2023-02-15T14:35:00;21.42;;;10.55;;
27847;SDS011;15212;48.830;8.730;2023-02-15T14:37:36;21.12;;;10.32;;
27847;SDS011;15212;48.830;8.730;2023-02-15T14:40:12;19.60;;;9.35;;
27847;SDS011;15212;48.830;8.730;2023-02-15T14:43:27;14.73;;;8.63;;
27847;SDS011;15212;48.830;8.730;2023-02-15T14:46:34;18.40;;;8.93;;
27847;SDS011;15212;48.830;8.730;2023-02-15T14:49:39;18.65;;;8.48;;
27847;SDS011;15212;48.830;8.730;2023-02-15T14:52:11;18.73;;;10.15;;
27847;SDS011;15212;48.830;8.730;2023-02-15T15:05:21;18.77;;;9.45;;
27847;SDS011;15212;48.830;8.730;2023-02-15T15:08:01;19.90;;;9.40;;
27847;SDS011;15212;48.830;8.730;2023-02-15T15:10:36;18.00;;;9.30;;
27847;SDS011;15212;48.830;8.730;2023-02-15T15:16:27;18.57;;;9.43;;
27847;SDS011;15212;48.830;8.730;2023-02-15T15:19:10;22.65;;;11.08;;
27847;SDS011;15212;48.830;8.730;2023-02-15T15:35:33;23.92;;;11.05;;
27847;SDS011;15212;48.830;8.730;2023-02-15T15:50:20;29.12;;;10.98;;
27847;SDS011;15212;48.830;8.730;2023-02-15T15:52:50;20.25;;;10.78;;
27847;SDS011;15212;48.830;8.730;2023-02-15T15:55:22;24.02;;;11.57;;
27847;SDS011;15212;48.830;8.730;2023-02-15T15:57:59;27.60;;;11.85;;
27847;SDS011;15212;48.830;8.730;2023-02-15T16:00:46;18.95;;;10.60;;
27847;SDS011;15212;48.830;8.730;2023-02-15T16:03:38;18.73;;;10.13;;
27847;SDS011;15212;48.830;8.730;2023-02-15T16:06:26;17.07;;;9.15;;
27847;SDS011;15212;48.830;8.730;2023-02-15T16:08:53;17.00;;;8.95;;
27847;SDS011;15212;48.830;8.730;2023-02-15T16:11:25;15.23;;;8.25;;
27847;SDS011;15212;48.830;8.730;2023-02-15T16:13:56;17.20;;;8.68;;
27847;SDS011;15212;48.830;8.730;2023-02-15T16:16:25;17.00;;;8.60;;
27847;SDS011;15212;48.830;8.730;2023-02-15T16:18:56;19.98;;;8.45;;
27847;SDS011;15212;48.830;8.730;2023-02-15T16:21:32;16.00;;;7.87;;
27847;SDS011;15212;48.830;8.730;2023-02-15T16:24:01;14.93;;;7.45;;
27847;SDS011;15212;48.830;8.730;2023-02-15T16:26:58;15.93;;;7.40;;
27847;SDS011;15212;48.830;8.730;2023-02-15T16:29:46;16.00;;;7.60;;
27847;SDS011;15212;48.830;8.730;2023-02-15T16:32:19;15.08;;;7.28;;
27847;SDS011;15212;48.830;8.730;2023-02-15T16:37:32;12.80;;;6.43;;
27847;SDS011;15212;48.830;8.730;2023-02-15T16:40:02;12.65;;;6.50;;
27847;SDS011;15212;48.830;8.730;2023-02-15T16:42:31;14.33;;;6.00;;
27847;SDS011;15212;48.830;8.730;2023-02-15T16:45:08;14.58;;;6.22;;
27847;SDS011;15212;48.830;8.730;2023-02-15T16:47:43;13.70;;;6.15;;
27847;SDS011;15212;48.830;8.730;2023-02-15T16:50:17;12.23;;;5.95;;
27847;SDS011;15212;48.830;8.730;2023-02-15T16:53:00;14.95;;;6.30;;
27847;SDS011;15212;48.830;8.730;2023-02-15T16:55:35;12.35;;;5.87;;
27847;SDS011;15212;48.830;8.730;2023-02-15T16:58:11;14.55;;;5.62;;
27847;SDS011;15212;48.830;8.730;2023-02-15T17:00:40;12.45;;;5.40;;
27847;SDS011;15212;48.830;8.730;2023-02-15T17:05:46;15.05;;;6.12;;
27847;SDS011;15212;48.830;8.730;2023-02-15T17:08:33;18.12;;;6.60;;
27847;SDS011;15212;48.830;8.730;2023-02-15T17:11:12;13.98;;;7.40;;
27847;SDS011;15212;48.830;8.730;2023-02-15T17:19:47;15.58;;;6.87;;
27847;SDS011;15212;48.830;8.730;2023-02-15T17:22:21;13.60;;;6.53;;
27847;SDS011;15212;48.830;8.730;2023-02-15T17:24:57;14.05;;;6.75;;
27847;SDS011;15212;48.830;8.730;2023-02-15T17:27:30;14.13;;;7.08;;
27847;SDS011;15212;48.830;8.730;2023-02-15T17:30:01;13.00;;;6.83;;
27847;SDS011;15212;48.830;8.730;2023-02-15T17:32:33;15.20;;;7.22;;
27847;SDS011;15212;48.830;8.730;2023-02-15T17:37:59;14.05;;;6.80;;
27847;SDS011;15212;48.830;8.730;2023-02-15T17:40:46;12.50;;;6.65;;
27847;SDS011;15212;48.830;8.730;2023-02-15T17:43:15;14.35;;;7.58;;
27847;SDS011;15212;48.830;8.730;2023-02-15T17:45:47;14.10;;;7.33;;
27847;SDS011;15212;48.830;8.730;2023-02-15T17:48:20;16.82;;;7.62;;
27847;SDS011;15212;48.830;8.730;2023-02-15T17:50:54;13.50;;;7.55;;
27847;SDS011;15212;48.830;8.730;2023-02-15T17:53:23;12.88;;;6.67;;
27847;SDS011;15212;48.830;8.730;2023-02-15T17:55:52;17.87;;;7.92;;
27847;SDS011;15212;48.830;8.730;2023-02-15T17:58:20;15.95;;;7.65;;